createdAt,value
2023-03-06T00:42:38.672Z,0.61
2023-03-06T00:44:37.741Z,0.62
2023-03-06T00:45:37.806Z,0.61
2023-03-06T00:46:37.799Z,0.61
2023-03-06T00:47:37.844Z,0.62
2023-03-06T00:48:37.901Z,0.61
2023-03-06T00:49:38.652Z,0.62
2023-03-06T00:50:37.985Z,0.61
2023-03-06T00:51:38.014Z,0.60
2023-03-06T00:52:38.052Z,0.60
2023-03-06T00:53:38.093Z,0.62
2023-03-06T00:54:38.135Z,0.62
2023-03-06T00:55:38.180Z,0.60
2023-03-06T00:56:38.236Z,0.61
2023-03-06T00:57:38.253Z,0.60
2023-03-06T00:58:38.375Z,0.61
2023-03-06T00:59:38.348Z,0.61
2023-03-06T01:00:38.431Z,0.61
2023-03-06T01:01:38.518Z,0.60
2023-03-06T01:02:38.463Z,0.62
2023-03-06T01:03:38.512Z,0.62
2023-03-06T01:04:38.626Z,0.61
2023-03-06T01:05:38.607Z,0.61
2023-03-06T01:06:38.649Z,0.61
2023-03-06T01:07:38.701Z,0.61
2023-03-06T01:08:38.737Z,0.61
2023-03-06T01:09:38.773Z,0.61
2023-03-06T01:10:38.809Z,0.61
2023-03-06T01:11:38.854Z,0.60
2023-03-06T01:12:38.984Z,0.62
2023-03-06T01:13:39.031Z,0.61
2023-03-06T01:14:38.992Z,0.61
2023-03-06T01:15:39.037Z,0.62
2023-03-06T01:16:39.093Z,0.60
2023-03-06T01:17:39.120Z,0.61
2023-03-06T01:18:39.164Z,0.61
2023-03-06T01:19:39.205Z,0.61
2023-03-06T01:20:39.374Z,0.61
2023-03-06T01:21:39.297Z,0.62
2023-03-06T01:22:39.358Z,0.60
2023-03-06T01:23:39.378Z,0.62
2023-03-06T01:24:39.428Z,0.61
2023-03-06T01:25:39.476Z,0.61
2023-03-06T01:26:39.519Z,0.61
2023-03-06T01:27:39.570Z,0.62
2023-03-06T01:28:39.619Z,0.60
2023-03-06T01:29:39.705Z,0.60
2023-03-06T01:30:39.703Z,0.62
2023-03-06T01:31:39.813Z,0.62
2023-03-06T01:32:39.958Z,0.61
2023-03-06T01:33:39.835Z,0.61
2023-03-06T01:34:39.871Z,0.60
2023-03-06T01:35:39.945Z,0.61
2023-03-06T01:36:39.942Z,0.62
2023-03-06T01:37:39.997Z,0.61
2023-03-06T01:38:40.039Z,0.61
2023-03-06T01:39:40.082Z,0.62
2023-03-06T01:40:40.115Z,0.62
2023-03-06T01:41:40.149Z,0.62
2023-03-06T01:42:40.197Z,0.61
2023-03-06T01:43:40.248Z,0.61
2023-03-06T01:44:40.275Z,0.60
2023-03-06T01:45:40.319Z,0.61
2023-03-06T01:46:40.368Z,0.60
2023-03-06T01:47:40.408Z,0.62
2023-03-06T01:48:40.444Z,0.62
2023-03-06T01:49:40.589Z,0.62
2023-03-06T01:50:40.526Z,0.62
2023-03-06T01:51:40.571Z,0.61
2023-03-06T01:52:40.608Z,0.62
2023-03-06T01:53:40.643Z,0.62
2023-03-06T01:54:40.693Z,0.62
2023-03-06T01:55:40.734Z,0.62
2023-03-06T06:39:47.784Z,1.08
2023-03-06T07:12:47.748Z,6.37
2023-03-06T07:13:48.761Z,6.61
2023-03-06T07:17:49.915Z,10.10
2023-03-06T08:07:47.822Z,7.79
2023-03-06T08:21:47.829Z,1.81
2023-03-06T08:42:47.837Z,0.50
2023-03-06T08:43:47.846Z,0.50
2023-03-06T08:51:47.717Z,0.51
2023-03-06T08:52:47.761Z,0.51
2023-03-06T08:53:47.807Z,0.50
2023-03-06T08:54:47.803Z,0.50
2023-03-06T08:55:47.812Z,0.50
2023-03-06T08:56:47.810Z,0.52
2023-03-06T08:57:47.821Z,0.53
2023-03-06T08:58:47.836Z,0.53
2023-03-06T08:59:47.856Z,0.53
2023-03-06T09:00:47.942Z,0.50
2023-03-06T09:01:47.894Z,0.53
2023-03-06T09:02:47.922Z,0.50
2023-03-06T09:03:47.935Z,0.52
2023-03-06T09:04:47.947Z,0.50
2023-03-06T09:05:47.969Z,0.51
2023-03-06T09:07:48.011Z,0.52
2023-03-06T09:08:48.044Z,0.50
2023-03-06T09:09:48.057Z,0.51
2023-03-06T09:10:48.119Z,0.50
2023-03-06T09:11:48.090Z,0.55
2023-03-06T09:12:51.221Z,0.52
2023-03-06T09:13:48.081Z,0.65
2023-03-06T09:14:48.314Z,0.94
2023-03-06T09:15:48.071Z,1.34
2023-03-06T09:16:48.256Z,1.72
2023-03-06T09:17:48.169Z,2.29
2023-03-06T09:18:48.067Z,3.04
2023-03-06T09:19:48.038Z,3.73
2023-03-06T09:20:48.038Z,4.40
2023-03-06T09:21:48.027Z,5.11
2023-03-06T09:22:48.026Z,5.61
2023-03-06T09:23:48.020Z,5.91
2023-03-06T09:25:48.011Z,7.12
2023-03-06T09:26:49.872Z,7.82
2023-03-06T09:28:47.977Z,2.39
2023-03-06T09:33:47.963Z,2.91
2023-03-06T09:34:47.948Z,3.58
2023-03-06T09:35:47.996Z,4.10
2023-03-06T09:36:56.900Z,4.73
2023-03-06T09:38:47.980Z,5.02
2023-03-06T09:39:47.924Z,5.72
2023-03-06T09:40:47.913Z,7.06
2023-03-06T13:04:54.949Z,51.53
2023-03-06T14:14:53.305Z,30.89
2023-03-06T14:15:53.452Z,30.69
2023-03-06T14:16:53.482Z,31.05
2023-03-06T14:17:53.471Z,30.48
2023-03-06T14:18:53.523Z,30.50
2023-03-06T14:19:53.582Z,30.11
2023-03-06T14:28:53.939Z,28.14
2023-03-06T14:54:54.210Z,24.28
2023-03-06T14:55:54.105Z,23.90
2023-03-06T14:56:54.137Z,23.53
2023-03-06T14:57:54.114Z,23.76
2023-03-06T14:58:54.122Z,23.57
2023-03-06T14:59:54.112Z,23.76
2023-03-06T15:00:54.230Z,23.10
2023-03-06T15:01:54.127Z,22.95
2023-03-06T15:02:54.173Z,22.84
2023-03-06T15:03:54.134Z,22.73
2023-03-06T15:04:54.141Z,22.45
2023-03-06T15:05:54.153Z,22.09
2023-03-06T15:06:54.193Z,22.13
2023-03-06T15:07:54.155Z,21.55
2023-03-06T15:08:54.168Z,21.51
2023-03-06T15:09:54.170Z,21.36
2023-03-06T15:10:54.228Z,21.07
2023-03-06T15:11:54.230Z,21.02
2023-03-06T15:12:54.193Z,21.21
2023-03-06T15:13:54.213Z,21.19
2023-03-06T15:14:54.212Z,20.89
2023-03-06T15:15:54.263Z,21.08
2023-03-06T15:16:54.248Z,20.77
2023-03-06T15:17:54.239Z,20.53
2023-03-06T15:18:54.257Z,20.79
2023-03-06T15:19:54.491Z,20.75
2023-03-06T15:20:54.285Z,20.63
2023-03-06T15:21:54.293Z,20.51
2023-03-06T15:22:54.305Z,20.34
2023-03-06T15:23:54.316Z,20.24
2023-03-06T15:24:54.424Z,20.00
2023-03-06T15:25:54.365Z,20.00
2023-03-06T15:26:54.373Z,19.84
2023-03-06T15:27:54.401Z,19.90
2023-03-06T15:29:03.408Z,19.45
2023-03-06T15:29:55.405Z,19.47
2023-03-06T15:30:54.394Z,19.56
2023-03-06T15:31:54.426Z,19.63
2023-03-06T15:32:54.381Z,19.53
2023-03-06T15:33:54.381Z,19.51
2023-03-06T15:34:54.402Z,19.22
2023-03-06T15:35:54.402Z,18.80
2023-03-06T15:36:54.391Z,19.21
2023-03-06T15:37:54.358Z,18.64
2023-03-06T15:38:54.350Z,18.14
2023-03-06T15:39:54.351Z,18.60
2023-03-06T15:40:54.340Z,18.35
2023-03-06T15:41:54.331Z,17.84
2023-03-06T15:42:54.330Z,17.88
2023-03-06T15:43:54.997Z,17.88
2023-03-06T15:44:54.319Z,17.56
2023-03-06T15:45:54.311Z,17.23
2023-03-06T15:47:07.784Z,17.04
2023-03-06T15:47:55.293Z,17.06
2023-03-06T15:48:54.287Z,17.06
2023-03-06T15:49:54.283Z,17.04
2023-03-06T15:50:54.294Z,16.83
2023-03-06T15:51:54.264Z,16.62
2023-03-06T15:52:54.255Z,16.62
2023-03-06T15:53:59.782Z,16.65
2023-03-06T15:54:55.260Z,16.66
2023-03-06T15:55:54.250Z,16.67
2023-03-06T15:56:54.232Z,16.73
2023-03-06T15:57:54.226Z,16.75
2023-03-06T15:58:55.002Z,16.87
2023-03-06T15:59:54.238Z,16.47
2023-03-06T16:00:54.252Z,16.37
2023-03-06T16:01:54.208Z,16.70
2023-03-06T16:02:54.186Z,16.31
2023-03-06T16:03:54.204Z,16.34
2023-03-06T16:04:54.215Z,16.21
2023-03-06T16:05:54.168Z,16.30
2023-03-06T16:06:54.168Z,16.22
2023-03-06T16:07:54.172Z,15.90
2023-03-06T16:08:54.230Z,15.64
2023-03-06T16:09:54.257Z,15.54
2023-03-06T16:10:54.312Z,15.70
2023-03-06T16:11:54.355Z,15.65
2023-03-06T16:12:54.413Z,15.45
2023-03-06T16:13:54.456Z,15.58
2023-03-06T16:14:54.506Z,15.49
2023-03-06T16:15:55.010Z,15.45
2023-03-06T16:16:54.676Z,15.46
2023-03-06T16:17:54.671Z,15.47
2023-03-06T16:18:54.728Z,15.44
2023-03-06T16:19:54.782Z,15.00
2023-03-06T16:20:54.841Z,14.88
2023-03-06T16:21:54.910Z,14.84
2023-03-06T16:22:54.929Z,14.99
2023-03-06T16:23:54.999Z,14.84
2023-03-06T16:24:55.051Z,14.68
2023-03-06T16:25:55.110Z,14.73
2023-03-06T16:26:55.189Z,14.73
2023-03-06T16:27:55.215Z,14.86
2023-03-06T16:28:55.265Z,14.89
2023-03-06T16:29:55.304Z,14.82
2023-03-06T16:30:55.461Z,14.47
2023-03-06T16:31:55.496Z,14.63
2023-03-06T16:32:55.478Z,14.41
2023-03-06T16:33:55.542Z,13.97
2023-03-06T16:34:55.603Z,13.68
2023-03-06T16:35:55.692Z,13.88
2023-03-06T16:36:55.723Z,14.03
2023-03-06T16:37:55.780Z,13.77
2023-03-06T16:38:55.855Z,13.69
2023-03-06T16:39:55.901Z,13.60
2023-03-06T16:40:55.963Z,13.35
2023-03-06T16:41:56.032Z,13.35
2023-03-06T16:42:56.153Z,13.43
2023-03-06T16:43:56.196Z,13.63
2023-03-06T16:44:56.238Z,13.46
2023-03-06T16:45:56.322Z,13.52
2023-03-06T16:46:56.382Z,13.63
2023-03-06T16:47:57.820Z,13.61
2023-03-06T16:48:56.436Z,13.73
2023-03-06T16:49:56.515Z,13.70
2023-03-06T16:50:56.559Z,13.85
2023-03-06T16:51:56.612Z,13.56
2023-03-06T16:52:56.691Z,13.30
2023-03-06T16:53:56.753Z,13.41
2023-03-06T16:54:56.796Z,13.29
2023-03-06T16:55:56.842Z,13.22
2023-03-06T16:56:56.900Z,13.21
2023-03-06T16:57:56.963Z,13.21
2023-03-06T16:58:57.019Z,12.95
2023-03-06T16:59:57.128Z,12.97
2023-03-06T17:00:57.122Z,12.97
2023-03-06T17:11:57.314Z,12.17
2023-03-06T17:12:57.321Z,11.85
2023-03-06T17:13:57.319Z,12.03
2023-03-06T17:14:57.344Z,12.16
2023-03-06T17:15:57.359Z,12.15
2023-03-06T17:16:57.346Z,12.07
2023-03-06T17:17:57.353Z,11.86
2023-03-06T17:18:57.352Z,11.88
2023-03-06T17:19:57.357Z,11.82
2023-03-06T17:20:57.363Z,11.80
2023-03-06T17:21:57.350Z,11.79
2023-03-06T17:22:57.363Z,11.66
2023-03-06T17:23:57.389Z,11.61
2023-03-06T17:24:57.433Z,11.58
2023-03-06T17:25:57.514Z,11.34
2023-03-06T17:26:57.460Z,11.17
2023-03-06T17:27:57.493Z,11.19
2023-03-06T17:28:57.524Z,11.16
2023-03-06T17:29:57.527Z,10.91
2023-03-06T17:30:57.600Z,10.66
2023-03-06T17:31:57.564Z,10.61
2023-03-06T17:32:57.575Z,10.61
2023-03-06T17:33:57.591Z,10.54
2023-03-06T17:34:57.590Z,10.43
2023-03-06T17:35:57.665Z,10.38
2023-03-06T17:36:57.643Z,10.06
2023-03-06T17:37:57.627Z,10.13
2023-03-06T17:38:57.626Z,10.12
2023-03-06T17:39:57.638Z,10.08
2023-03-06T17:40:57.635Z,9.83
2023-03-06T17:41:57.706Z,9.69
2023-03-06T17:42:57.633Z,9.99
2023-03-06T17:43:57.632Z,10.21
2023-03-06T17:44:57.641Z,10.15
2023-03-06T17:45:57.640Z,10.04
2023-03-06T17:46:57.626Z,10.23
2023-03-06T17:47:57.637Z,10.18
2023-03-06T17:48:57.638Z,9.95
2023-03-06T17:49:57.631Z,10.05
2023-03-06T17:50:57.654Z,9.94
2023-03-06T17:51:57.646Z,9.96
2023-03-06T17:52:57.640Z,10.04
2023-03-06T17:53:57.671Z,10.06
2023-03-06T17:54:57.631Z,10.11
2023-03-06T17:55:57.641Z,10.16
2023-03-06T17:56:57.633Z,9.99
2023-03-06T17:57:57.642Z,9.82
2023-03-06T17:58:57.637Z,9.59
2023-03-06T17:59:57.701Z,9.67
2023-03-06T18:00:57.672Z,9.60
2023-03-06T18:01:57.705Z,9.65
2023-03-06T18:02:57.676Z,9.52
2023-03-06T18:03:57.678Z,9.53
2023-03-06T18:04:57.747Z,9.58
2023-03-06T18:05:57.703Z,9.51
2023-03-06T18:06:57.691Z,9.44
2023-03-06T18:07:58.053Z,9.43
2023-03-06T18:08:57.740Z,9.23
2023-03-06T18:09:57.772Z,9.16
2023-03-06T18:10:57.768Z,9.22
2023-03-06T18:11:57.757Z,9.13
2023-03-06T18:12:57.782Z,9.08
2023-03-06T18:13:57.791Z,9.08
2023-03-06T18:14:57.790Z,9.08
2023-03-06T18:15:57.801Z,9.09
2023-03-06T18:16:57.805Z,8.97
2023-03-06T18:17:57.790Z,8.90
2023-03-06T18:18:57.798Z,9.07
2023-03-06T18:19:57.869Z,8.96
2023-03-06T18:20:57.806Z,8.74
2023-03-06T18:21:57.812Z,8.89
2023-03-06T18:22:57.809Z,8.89
2023-03-06T18:23:57.849Z,8.89
2023-03-06T18:24:57.836Z,8.68
2023-03-06T18:25:57.850Z,8.52
2023-03-06T18:26:57.869Z,8.70
2023-03-06T18:27:57.876Z,8.53
2023-03-06T18:28:57.865Z,8.39
2023-03-06T18:29:57.905Z,8.37
2023-03-06T18:30:57.875Z,8.52
2023-03-06T18:31:57.975Z,8.35
2023-03-06T18:32:57.907Z,8.28
2023-03-06T18:33:57.918Z,8.39
2023-03-06T18:34:57.925Z,8.41
2023-03-06T18:35:57.964Z,8.21
2023-03-06T18:36:57.942Z,8.28
2023-03-06T18:37:57.939Z,8.25
2023-03-06T18:38:57.954Z,8.25
2023-03-06T18:39:58.054Z,8.33
2023-03-06T18:40:57.962Z,8.20
2023-03-06T18:41:57.973Z,7.98
2023-03-06T18:42:57.972Z,7.96
2023-03-06T18:43:57.986Z,7.99
2023-03-06T18:44:58.061Z,8.12
2023-03-06T18:45:58.036Z,8.06
2023-03-06T18:46:58.023Z,8.07
2023-03-06T18:47:57.989Z,8.00
2023-03-06T18:48:58.017Z,8.11
2023-03-06T18:49:58.014Z,7.90
2023-03-06T18:50:58.060Z,7.92
2023-03-06T18:51:58.066Z,7.77
2023-03-06T18:52:58.076Z,7.79
2023-03-06T18:53:58.185Z,7.82
2023-03-06T18:54:58.112Z,7.78
2023-03-06T18:55:58.211Z,7.81
2023-03-06T18:56:58.212Z,7.67
2023-03-06T18:57:58.221Z,7.59
2023-03-06T18:58:58.240Z,7.54
2023-03-06T18:59:58.232Z,7.72
2023-03-06T19:00:59.486Z,7.45
2023-03-06T19:01:58.284Z,7.58
2023-03-06T19:02:58.270Z,7.51
2023-03-06T19:03:58.288Z,7.55
2023-03-06T19:04:58.287Z,7.48
2023-03-06T19:05:58.327Z,7.41
2023-03-06T19:06:58.340Z,7.46
2023-03-06T19:07:58.348Z,7.42
2023-03-06T19:08:58.365Z,7.36
2023-03-06T19:09:58.370Z,7.39
2023-03-06T19:10:58.396Z,7.51
2023-03-06T19:11:58.420Z,7.36
2023-03-06T19:12:58.420Z,7.41
2023-03-06T19:13:58.431Z,7.40
2023-03-06T19:14:58.431Z,7.26
2023-03-06T19:15:58.531Z,7.34
2023-03-06T19:16:58.546Z,7.20
2023-03-06T19:17:58.567Z,7.18
2023-03-06T19:18:58.567Z,7.11
2023-03-06T19:19:58.583Z,7.22
2023-03-06T19:20:58.599Z,7.15
2023-03-06T19:21:58.735Z,7.13
2023-03-06T19:22:58.659Z,7.16
2023-03-06T19:23:58.672Z,7.07
2023-03-06T19:24:58.688Z,7.06
2023-03-06T19:25:59.581Z,6.97
2023-03-06T19:26:58.764Z,7.00
2023-03-06T19:27:59.590Z,7.04
2023-03-06T19:28:58.778Z,6.99
2023-03-06T19:29:58.800Z,6.94
2023-03-06T19:30:58.833Z,6.94
2023-03-06T19:31:58.980Z,6.91
2023-03-06T19:32:58.863Z,6.82
2023-03-06T19:33:58.924Z,6.78
2023-03-06T19:34:58.923Z,6.79
2023-03-06T19:35:58.979Z,6.84
2023-03-06T19:36:58.959Z,6.83
2023-03-06T19:37:58.976Z,6.94
2023-03-06T19:38:59.046Z,6.76
2023-03-06T19:39:59.057Z,6.67
2023-03-06T19:40:59.592Z,6.72
2023-03-06T19:41:59.053Z,6.64
2023-03-06T19:42:59.058Z,6.72
2023-03-06T19:43:59.113Z,6.56
2023-03-06T19:44:59.158Z,6.56
2023-03-06T19:45:59.115Z,6.54
2023-03-06T19:46:59.140Z,6.54
2023-03-06T19:47:59.149Z,6.47
2023-03-06T19:48:59.184Z,6.55
2023-03-06T19:49:59.195Z,6.34
2023-03-06T19:50:59.215Z,6.44
2023-03-06T19:51:59.237Z,6.45
2023-03-06T19:52:59.268Z,6.39
2023-03-06T19:53:59.278Z,6.39
2023-03-06T19:54:59.303Z,6.38
2023-03-06T19:55:59.337Z,6.25
2023-03-06T19:56:59.357Z,6.28
2023-03-06T19:57:59.370Z,6.23
2023-03-06T19:58:59.399Z,6.23
2023-03-06T19:59:59.418Z,6.22
2023-03-06T20:00:59.465Z,6.20
2023-03-06T20:01:59.477Z,6.14
2023-03-06T20:02:59.508Z,6.22
2023-03-06T20:03:59.913Z,6.20
2023-03-06T20:04:59.555Z,6.10
2023-03-06T20:05:59.569Z,6.02
2023-03-06T20:06:59.600Z,6.10
2023-03-06T20:07:59.617Z,6.13
2023-03-06T20:09:00.131Z,5.97
2023-03-06T20:09:59.659Z,6.11
2023-03-06T20:10:59.710Z,5.92
2023-03-06T20:11:59.692Z,5.90
2023-03-06T20:12:59.723Z,5.87
2023-03-06T20:13:59.742Z,5.83
2023-03-06T20:14:59.775Z,5.90
2023-03-06T20:15:59.840Z,5.85
2023-03-06T20:16:59.829Z,5.77
2023-03-06T20:17:59.844Z,5.83
2023-03-06T20:18:59.871Z,5.76
2023-03-06T20:19:59.897Z,5.69
2023-03-06T20:20:59.912Z,5.67
2023-03-06T20:22:00.612Z,5.65
2023-03-06T20:23:00.022Z,5.70
2023-03-06T20:23:59.989Z,5.68
2023-03-06T20:25:00.015Z,5.72
2023-03-06T20:26:00.044Z,5.67
2023-03-06T20:27:00.063Z,5.72
2023-03-06T20:28:00.122Z,5.66
2023-03-06T20:29:00.094Z,5.52
2023-03-06T20:30:00.139Z,5.55
2023-03-06T20:31:00.232Z,5.54
2023-03-06T20:32:00.180Z,5.48
2023-03-06T20:33:00.215Z,5.48
2023-03-06T20:34:00.229Z,5.49
2023-03-06T20:35:01.120Z,5.50
2023-03-06T20:36:00.372Z,5.49
2023-03-06T20:37:00.314Z,5.50
2023-03-06T20:38:01.105Z,5.41
2023-03-06T20:39:00.370Z,5.40
2023-03-06T20:40:00.404Z,5.45
2023-03-06T20:41:00.437Z,5.39
2023-03-06T20:42:00.435Z,5.43
2023-03-06T20:43:00.479Z,5.36
2023-03-06T20:44:00.522Z,5.30
2023-03-06T20:45:00.528Z,5.32
2023-03-06T20:46:00.603Z,5.43
2023-03-06T20:47:00.569Z,5.32
2023-03-06T20:48:00.603Z,5.26
2023-03-06T20:49:00.632Z,5.24
2023-03-06T20:50:01.682Z,5.25
2023-03-06T20:51:00.697Z,5.27
2023-03-06T20:52:00.709Z,5.21
2023-03-06T20:53:00.736Z,5.12
2023-03-06T20:54:00.759Z,5.15
2023-03-06T20:55:00.793Z,5.14
2023-03-06T20:56:01.118Z,5.13
2023-03-06T20:57:00.838Z,5.07
2023-03-06T20:58:00.859Z,5.09
2023-03-06T20:59:00.899Z,4.97
2023-03-06T21:00:01.139Z,4.96
2023-03-06T21:01:02.456Z,5.09
2023-03-06T21:02:01.052Z,5.07
2023-03-06T22:10:03.677Z,4.34
2023-03-06T22:11:03.648Z,4.34
2023-03-06T22:16:03.650Z,4.30
2023-03-06T22:24:03.651Z,4.10
2023-03-06T22:27:03.664Z,4.19
2023-03-06T22:32:03.391Z,4.07
2023-03-06T22:35:03.323Z,4.09
2023-03-06T22:36:03.365Z,4.00
2023-03-06T22:37:03.370Z,4.02
2023-03-06T22:38:03.393Z,3.93
2023-03-06T22:39:03.399Z,3.91
2023-03-06T22:40:03.436Z,3.94
2023-03-06T22:41:03.474Z,3.95
2023-03-06T22:42:03.484Z,3.97
2023-03-06T22:43:03.503Z,4.00
2023-03-06T22:44:03.527Z,3.97
2023-03-06T22:45:03.536Z,3.92
2023-03-06T22:46:03.623Z,3.85
2023-03-06T22:47:03.593Z,3.94
2023-03-06T22:48:10.822Z,3.87
2023-03-06T22:49:04.613Z,3.87
2023-03-06T22:50:03.596Z,3.88
2023-03-06T22:51:03.596Z,3.88
2023-03-06T22:52:03.578Z,3.90
2023-03-06T22:53:03.574Z,3.80
2023-03-06T22:54:03.576Z,3.86
2023-03-06T22:55:03.566Z,3.79
2023-03-06T22:56:03.557Z,3.88
2023-03-06T22:57:03.557Z,3.79
2023-03-06T22:58:03.550Z,3.67
2023-03-06T22:59:03.531Z,3.74
2023-03-06T23:00:03.547Z,3.78
2023-03-06T23:01:03.547Z,3.65
2023-03-06T23:02:03.519Z,3.68
2023-03-06T23:03:03.587Z,3.66
2023-03-06T23:04:03.565Z,3.74
2023-03-06T23:05:03.504Z,3.69
2023-03-06T23:06:03.498Z,3.83
2023-03-06T23:07:03.509Z,3.68
2023-03-06T23:08:03.536Z,3.70
2023-03-06T23:09:03.640Z,3.70
2023-03-06T23:10:03.590Z,3.63
2023-03-06T23:11:03.616Z,3.66
2023-03-06T23:12:03.638Z,3.56
2023-03-06T23:13:03.664Z,3.67
2023-03-06T23:14:03.685Z,3.60
2023-03-06T23:15:03.771Z,3.74
2023-03-06T23:16:03.860Z,3.60
2023-03-06T23:27:04.030Z,3.49
2023-03-06T23:28:04.047Z,3.46
2023-03-06T23:29:04.069Z,3.48
2023-03-06T23:30:04.074Z,3.54
2023-03-06T23:31:04.152Z,3.50
2023-03-06T23:32:04.174Z,3.48
2023-03-06T23:33:04.146Z,3.46
2023-03-06T23:34:04.178Z,3.45
2023-03-06T23:35:04.199Z,3.46
2023-03-06T23:36:04.209Z,3.48
2023-03-06T23:37:04.248Z,3.39
2023-03-06T23:38:04.278Z,3.49
2023-03-06T23:39:04.291Z,3.46
2023-03-06T23:40:04.316Z,3.47
2023-03-06T23:41:04.374Z,3.39
2023-03-06T23:42:04.364Z,3.44
2023-03-06T23:43:04.687Z,3.42
2023-03-06T23:44:04.411Z,3.41
2023-03-06T23:45:04.444Z,3.45
2023-03-06T23:46:04.500Z,3.34
2023-03-06T23:47:04.485Z,3.33
2023-03-06T23:48:04.516Z,3.34
2023-03-06T23:49:04.546Z,3.33
2023-03-06T23:50:04.579Z,3.34
2023-03-06T23:51:04.599Z,3.34
2023-03-06T23:52:04.646Z,3.31
2023-03-06T23:53:04.674Z,3.34
2023-03-06T23:54:04.719Z,3.28
2023-03-06T23:55:04.809Z,3.30
2023-03-06T23:56:04.754Z,3.31
2023-03-06T23:57:04.805Z,3.41
2023-03-06T23:58:05.690Z,3.30
2023-03-06T23:59:04.828Z,3.32
